sensor_id;sensor_type;location;lat;lon;timestamp;temperature;humidity
16728;DHT22;8482;54.396;18.590;2022-08-19T00:01:40;23.30;99.90
16728;DHT22;8482;54.396;18.590;2022-08-19T00:04:11;23.30;99.90
16728;DHT22;8482;54.396;18.590;2022-08-19T00:06:41;23.30;99.90
16728;DHT22;8482;54.396;18.590;2022-08-19T00:09:11;23.30;99.90
16728;DHT22;8482;54.396;18.590;2022-08-19T00:11:40;23.30;99.90
16728;DHT22;8482;54.396;18.590;2022-08-19T00:14:09;23.30;99.90
16728;DHT22;8482;54.396;18.590;2022-08-19T00:16:40;23.30;99.90
16728;DHT22;8482;54.396;18.590;2022-08-19T00:19:10;23.20;99.90
16728;DHT22;8482;54.396;18.590;2022-08-19T00:21:37;23.20;99.90
16728;DHT22;8482;54.396;18.590;2022-08-19T00:24:05;23.20;99.90
16728;DHT22;8482;54.396;18.590;2022-08-19T00:26:35;23.20;99.90
16728;DHT22;8482;54.396;18.590;2022-08-19T00:29:03;23.20;99.90
16728;DHT22;8482;54.396;18.590;2022-08-19T00:31:33;23.20;99.90
16728;DHT22;8482;54.396;18.590;2022-08-19T00:33:59;23.20;99.90
16728;DHT22;8482;54.396;18.590;2022-08-19T00:36:25;23.20;99.90
16728;DHT22;8482;54.396;18.590;2022-08-19T00:38:51;23.10;99.90
16728;DHT22;8482;54.396;18.590;2022-08-19T00:41:19;23.10;99.90
16728;DHT22;8482;54.396;18.590;2022-08-19T00:43:58;23.10;99.90
16728;DHT22;8482;54.396;18.590;2022-08-19T00:46:27;23.10;99.90
16728;DHT22;8482;54.396;18.590;2022-08-19T00:48:54;23.10;99.90
16728;DHT22;8482;54.396;18.590;2022-08-19T00:51:24;23.10;99.90
16728;DHT22;8482;54.396;18.590;2022-08-19T00:53:55;23.10;99.90
16728;DHT22;8482;54.396;18.590;2022-08-19T00:56:24;23.10;99.90
16728;DHT22;8482;54.396;18.590;2022-08-19T00:58:54;23.10;99.90
16728;DHT22;8482;54.396;18.590;2022-08-19T01:01:21;23.10;99.90
16728;DHT22;8482;54.396;18.590;2022-08-19T01:03:47;23.10;99.90
16728;DHT22;8482;54.396;18.590;2022-08-19T01:06:13;23.10;99.90
16728;DHT22;8482;54.396;18.590;2022-08-19T01:08:40;23.10;99.90
16728;DHT22;8482;54.396;18.590;2022-08-19T01:11:06;23.10;99.90
16728;DHT22;8482;54.396;18.590;2022-08-19T01:13:34;23.10;99.90
16728;DHT22;8482;54.396;18.590;2022-08-19T01:16:05;23.10;99.90
16728;DHT22;8482;54.396;18.590;2022-08-19T01:18:39;23.10;99.90
16728;DHT22;8482;54.396;18.590;2022-08-19T01:21:11;23.10;99.90
16728;DHT22;8482;54.396;18.590;2022-08-19T01:23:46;23.00;99.90
16728;DHT22;8482;54.396;18.590;2022-08-19T01:26:18;23.00;99.90
16728;DHT22;8482;54.396;18.590;2022-08-19T01:28:48;23.00;99.90
16728;DHT22;8482;54.396;18.590;2022-08-19T01:31:20;23.00;99.90
16728;DHT22;8482;54.396;18.590;2022-08-19T01:33:49;23.00;99.90
16728;DHT22;8482;54.396;18.590;2022-08-19T01:36:30;23.00;99.90
16728;DHT22;8482;54.396;18.590;2022-08-19T01:38:59;22.90;99.90
16728;DHT22;8482;54.396;18.590;2022-08-19T01:41:26;22.90;99.90
16728;DHT22;8482;54.396;18.590;2022-08-19T01:43:53;22.90;99.90
16728;DHT22;8482;54.396;18.590;2022-08-19T01:46:19;22.90;99.90
16728;DHT22;8482;54.396;18.590;2022-08-19T01:48:46;22.90;99.90
16728;DHT22;8482;54.396;18.590;2022-08-19T01:51:12;22.90;99.90
16728;DHT22;8482;54.396;18.590;2022-08-19T01:53:39;22.90;99.90
16728;DHT22;8482;54.396;18.590;2022-08-19T01:56:05;22.90;99.90
16728;DHT22;8482;54.396;18.590;2022-08-19T01:58:43;22.90;99.90
16728;DHT22;8482;54.396;18.590;2022-08-19T02:01:14;22.90;99.90
16728;DHT22;8482;54.396;18.590;2022-08-19T02:03:40;22.90;99.90
16728;DHT22;8482;54.396;18.590;2022-08-19T02:06:06;22.90;99.90
16728;DHT22;8482;54.396;18.590;2022-08-19T02:08:35;22.80;99.90
16728;DHT22;8482;54.396;18.590;2022-08-19T02:11:03;22.80;99.90
16728;DHT22;8482;54.396;18.590;2022-08-19T02:13:30;22.80;99.90
16728;DHT22;8482;54.396;18.590;2022-08-19T02:15:57;22.80;99.90
16728;DHT22;8482;54.396;18.590;2022-08-19T02:18:23;22.80;99.90
16728;DHT22;8482;54.396;18.590;2022-08-19T02:20:49;22.70;99.90
16728;DHT22;8482;54.396;18.590;2022-08-19T02:23:19;22.70;99.90
16728;DHT22;8482;54.396;18.590;2022-08-19T02:25:46;22.70;99.90
16728;DHT22;8482;54.396;18.590;2022-08-19T02:28:14;22.70;99.90
16728;DHT22;8482;54.396;18.590;2022-08-19T02:30:41;22.70;99.90
16728;DHT22;8482;54.396;18.590;2022-08-19T02:33:07;22.60;99.90
16728;DHT22;8482;54.396;18.590;2022-08-19T02:35:33;22.60;99.90
16728;DHT22;8482;54.396;18.590;2022-08-19T02:37:59;22.60;99.90
16728;DHT22;8482;54.396;18.590;2022-08-19T02:40:52;22.60;99.90
16728;DHT22;8482;54.396;18.590;2022-08-19T02:43:24;22.60;99.90
16728;DHT22;8482;54.396;18.590;2022-08-19T02:45:52;22.60;99.90
16728;DHT22;8482;54.396;18.590;2022-08-19T02:48:20;22.50;99.90
16728;DHT22;8482;54.396;18.590;2022-08-19T02:50:49;22.50;99.90
16728;DHT22;8482;54.396;18.590;2022-08-19T02:53:22;22.50;99.90
16728;DHT22;8482;54.396;18.590;2022-08-19T02:55:50;22.50;99.90
16728;DHT22;8482;54.396;18.590;2022-08-19T02:58:18;22.50;99.90
16728;DHT22;8482;54.396;18.590;2022-08-19T03:00:50;22.50;99.90
16728;DHT22;8482;54.396;18.590;2022-08-19T03:03:19;22.50;99.90
16728;DHT22;8482;54.396;18.590;2022-08-19T03:05:46;22.50;99.90
16728;DHT22;8482;54.396;18.590;2022-08-19T03:08:14;22.50;99.90
16728;DHT22;8482;54.396;18.590;2022-08-19T03:10:49;22.50;99.90
16728;DHT22;8482;54.396;18.590;2022-08-19T03:13:17;22.40;99.90
16728;DHT22;8482;54.396;18.590;2022-08-19T03:15:46;22.40;99.90
16728;DHT22;8482;54.396;18.590;2022-08-19T03:18:13;22.40;99.90
16728;DHT22;8482;54.396;18.590;2022-08-19T03:20:48;22.40;99.90
16728;DHT22;8482;54.396;18.590;2022-08-19T03:23:16;22.40;99.90
16728;DHT22;8482;54.396;18.590;2022-08-19T03:25:47;22.40;99.90
16728;DHT22;8482;54.396;18.590;2022-08-19T03:28:16;22.40;99.90
16728;DHT22;8482;54.396;18.590;2022-08-19T03:30:44;22.40;99.90
16728;DHT22;8482;54.396;18.590;2022-08-19T03:33:22;22.40;99.90
16728;DHT22;8482;54.396;18.590;2022-08-19T03:36:05;22.40;99.90
16728;DHT22;8482;54.396;18.590;2022-08-19T03:38:44;22.40;99.90
16728;DHT22;8482;54.396;18.590;2022-08-19T03:41:16;22.40;99.90
16728;DHT22;8482;54.396;18.590;2022-08-19T03:43:44;22.40;99.90
16728;DHT22;8482;54.396;18.590;2022-08-19T03:46:16;22.40;99.90
16728;DHT22;8482;54.396;18.590;2022-08-19T03:48:47;22.40;99.90
16728;DHT22;8482;54.396;18.590;2022-08-19T03:51:23;22.40;99.90
16728;DHT22;8482;54.396;18.590;2022-08-19T03:53:52;22.40;99.90
16728;DHT22;8482;54.396;18.590;2022-08-19T03:56:21;22.40;99.90
16728;DHT22;8482;54.396;18.590;2022-08-19T03:58:48;22.40;99.90
16728;DHT22;8482;54.396;18.590;2022-08-19T04:01:18;22.30;99.90
16728;DHT22;8482;54.396;18.590;2022-08-19T04:03:45;22.30;99.90
16728;DHT22;8482;54.396;18.590;2022-08-19T04:08:48;22.30;99.90
16728;DHT22;8482;54.396;18.590;2022-08-19T04:11:19;22.30;99.90
16728;DHT22;8482;54.396;18.590;2022-08-19T04:13:47;22.30;99.90
16728;DHT22;8482;54.396;18.590;2022-08-19T04:16:14;22.30;99.90
16728;DHT22;8482;54.396;18.590;2022-08-19T04:18:40;22.30;99.90
16728;DHT22;8482;54.396;18.590;2022-08-19T04:21:08;22.30;99.90
16728;DHT22;8482;54.396;18.590;2022-08-19T04:23:40;22.30;99.90
16728;DHT22;8482;54.396;18.590;2022-08-19T04:26:05;22.30;99.90
16728;DHT22;8482;54.396;18.590;2022-08-19T04:28:31;22.30;99.90
16728;DHT22;8482;54.396;18.590;2022-08-19T04:30:57;22.30;99.90
16728;DHT22;8482;54.396;18.590;2022-08-19T04:33:24;22.30;99.90
16728;DHT22;8482;54.396;18.590;2022-08-19T04:35:51;22.30;99.90
16728;DHT22;8482;54.396;18.590;2022-08-19T04:38:20;22.30;99.90
16728;DHT22;8482;54.396;18.590;2022-08-19T04:40:50;22.30;99.90
16728;DHT22;8482;54.396;18.590;2022-08-19T04:43:37;22.40;99.90
16728;DHT22;8482;54.396;18.590;2022-08-19T04:46:06;22.30;99.90
16728;DHT22;8482;54.396;18.590;2022-08-19T04:48:33;22.40;99.90
16728;DHT22;8482;54.396;18.590;2022-08-19T04:50:59;22.40;99.90
16728;DHT22;8482;54.396;18.590;2022-08-19T04:53:28;22.30;99.90
16728;DHT22;8482;54.396;18.590;2022-08-19T04:55:57;22.40;99.90
16728;DHT22;8482;54.396;18.590;2022-08-19T04:58:27;22.40;99.90
16728;DHT22;8482;54.396;18.590;2022-08-19T05:00:53;22.40;99.90
16728;DHT22;8482;54.396;18.590;2022-08-19T05:03:20;22.40;99.90
16728;DHT22;8482;54.396;18.590;2022-08-19T05:05:47;22.50;99.90
16728;DHT22;8482;54.396;18.590;2022-08-19T05:08:16;22.50;99.90
16728;DHT22;8482;54.396;18.590;2022-08-19T05:10:49;22.50;99.90
16728;DHT22;8482;54.396;18.590;2022-08-19T05:13:18;22.50;99.90
16728;DHT22;8482;54.396;18.590;2022-08-19T05:15:54;22.60;99.90
16728;DHT22;8482;54.396;18.590;2022-08-19T05:18:21;22.60;99.90
16728;DHT22;8482;54.396;18.590;2022-08-19T05:21:08;22.70;99.90
16728;DHT22;8482;54.396;18.590;2022-08-19T05:23:53;22.70;99.90
16728;DHT22;8482;54.396;18.590;2022-08-19T05:26:19;22.80;99.90
16728;DHT22;8482;54.396;18.590;2022-08-19T05:28:46;22.80;99.90
16728;DHT22;8482;54.396;18.590;2022-08-19T05:31:12;22.80;99.90
16728;DHT22;8482;54.396;18.590;2022-08-19T05:33:38;22.90;99.90
16728;DHT22;8482;54.396;18.590;2022-08-19T05:36:05;22.90;99.90
16728;DHT22;8482;54.396;18.590;2022-08-19T05:38:33;22.90;99.90
16728;DHT22;8482;54.396;18.590;2022-08-19T05:41:01;22.90;99.90
16728;DHT22;8482;54.396;18.590;2022-08-19T05:43:33;23.00;99.90
16728;DHT22;8482;54.396;18.590;2022-08-19T05:45:59;23.00;99.90
16728;DHT22;8482;54.396;18.590;2022-08-19T05:48:25;23.00;99.90
16728;DHT22;8482;54.396;18.590;2022-08-19T05:50:51;23.10;99.90
16728;DHT22;8482;54.396;18.590;2022-08-19T05:53:18;23.10;99.90
16728;DHT22;8482;54.396;18.590;2022-08-19T05:55:45;23.10;99.90
16728;DHT22;8482;54.396;18.590;2022-08-19T05:58:10;23.20;99.90
16728;DHT22;8482;54.396;18.590;2022-08-19T06:00:37;23.20;99.90
16728;DHT22;8482;54.396;18.590;2022-08-19T06:03:03;23.20;99.90
16728;DHT22;8482;54.396;18.590;2022-08-19T06:05:30;23.20;99.90
16728;DHT22;8482;54.396;18.590;2022-08-19T06:07:56;23.30;99.90
16728;DHT22;8482;54.396;18.590;2022-08-19T06:10:24;23.30;99.90
16728;DHT22;8482;54.396;18.590;2022-08-19T06:12:51;23.30;99.90
16728;DHT22;8482;54.396;18.590;2022-08-19T06:15:18;23.40;99.90
16728;DHT22;8482;54.396;18.590;2022-08-19T06:17:44;23.40;99.90
16728;DHT22;8482;54.396;18.590;2022-08-19T06:20:12;23.40;99.90
16728;DHT22;8482;54.396;18.590;2022-08-19T06:22:43;23.50;99.90
16728;DHT22;8482;54.396;18.590;2022-08-19T06:25:12;23.50;99.90
16728;DHT22;8482;54.396;18.590;2022-08-19T06:27:40;23.50;99.90
16728;DHT22;8482;54.396;18.590;2022-08-19T06:30:07;23.60;99.90
16728;DHT22;8482;54.396;18.590;2022-08-19T06:32:33;23.60;99.90
16728;DHT22;8482;54.396;18.590;2022-08-19T06:34:59;23.70;99.90
16728;DHT22;8482;54.396;18.590;2022-08-19T06:37:25;23.70;99.90
16728;DHT22;8482;54.396;18.590;2022-08-19T06:39:50;23.80;99.90
16728;DHT22;8482;54.396;18.590;2022-08-19T06:42:16;23.80;99.90
16728;DHT22;8482;54.396;18.590;2022-08-19T06:44:46;23.90;99.90
16728;DHT22;8482;54.396;18.590;2022-08-19T06:47:17;23.90;99.90
16728;DHT22;8482;54.396;18.590;2022-08-19T06:49:45;24.00;99.90
16728;DHT22;8482;54.396;18.590;2022-08-19T06:52:11;24.00;99.90
16728;DHT22;8482;54.396;18.590;2022-08-19T06:54:38;24.10;99.90
16728;DHT22;8482;54.396;18.590;2022-08-19T06:57:05;24.10;99.90
16728;DHT22;8482;54.396;18.590;2022-08-19T06:59:32;24.20;99.90
16728;DHT22;8482;54.396;18.590;2022-08-19T07:02:02;24.20;99.90
16728;DHT22;8482;54.396;18.590;2022-08-19T07:04:31;24.20;99.90
16728;DHT22;8482;54.396;18.590;2022-08-19T07:07:00;24.30;99.90
16728;DHT22;8482;54.396;18.590;2022-08-19T07:09:29;24.40;99.90
16728;DHT22;8482;54.396;18.590;2022-08-19T07:11:55;24.50;99.90
16728;DHT22;8482;54.396;18.590;2022-08-19T07:14:24;24.50;99.90
16728;DHT22;8482;54.396;18.590;2022-08-19T07:16:54;24.60;99.90
16728;DHT22;8482;54.396;18.590;2022-08-19T07:19:21;24.70;99.90
16728;DHT22;8482;54.396;18.590;2022-08-19T07:21:50;24.70;99.90
16728;DHT22;8482;54.396;18.590;2022-08-19T07:24:21;24.80;99.90
16728;DHT22;8482;54.396;18.590;2022-08-19T07:26:50;24.80;99.90
16728;DHT22;8482;54.396;18.590;2022-08-19T07:29:17;24.90;99.90
16728;DHT22;8482;54.396;18.590;2022-08-19T07:31:43;25.00;99.90
16728;DHT22;8482;54.396;18.590;2022-08-19T07:34:11;25.00;99.90
16728;DHT22;8482;54.396;18.590;2022-08-19T07:36:40;25.00;99.90
16728;DHT22;8482;54.396;18.590;2022-08-19T07:39:11;25.10;99.90
16728;DHT22;8482;54.396;18.590;2022-08-19T07:41:41;25.20;99.90
16728;DHT22;8482;54.396;18.590;2022-08-19T07:44:08;25.20;99.90
16728;DHT22;8482;54.396;18.590;2022-08-19T07:46:39;25.30;99.90
16728;DHT22;8482;54.396;18.590;2022-08-19T07:49:11;25.30;99.90
16728;DHT22;8482;54.396;18.590;2022-08-19T07:51:43;25.40;99.90
16728;DHT22;8482;54.396;18.590;2022-08-19T07:54:10;25.50;99.90
16728;DHT22;8482;54.396;18.590;2022-08-19T07:56:37;25.60;99.90
16728;DHT22;8482;54.396;18.590;2022-08-19T07:59:03;25.60;99.90
16728;DHT22;8482;54.396;18.590;2022-08-19T08:01:30;25.70;99.90
16728;DHT22;8482;54.396;18.590;2022-08-19T08:03:57;25.70;99.90
16728;DHT22;8482;54.396;18.590;2022-08-19T08:06:42;25.80;99.90
16728;DHT22;8482;54.396;18.590;2022-08-19T08:09:35;25.90;99.90
16728;DHT22;8482;54.396;18.590;2022-08-19T08:12:06;25.90;99.90
16728;DHT22;8482;54.396;18.590;2022-08-19T08:14:45;26.00;99.90
16728;DHT22;8482;54.396;18.590;2022-08-19T08:17:15;26.10;99.90
16728;DHT22;8482;54.396;18.590;2022-08-19T08:19:44;26.10;99.90
16728;DHT22;8482;54.396;18.590;2022-08-19T08:22:13;26.20;99.90
16728;DHT22;8482;54.396;18.590;2022-08-19T08:25:05;26.20;99.90
16728;DHT22;8482;54.396;18.590;2022-08-19T08:27:37;26.30;99.90
16728;DHT22;8482;54.396;18.590;2022-08-19T08:30:09;26.40;99.90
16728;DHT22;8482;54.396;18.590;2022-08-19T08:32:39;26.50;99.90
16728;DHT22;8482;54.396;18.590;2022-08-19T08:35:09;26.50;99.90
16728;DHT22;8482;54.396;18.590;2022-08-19T08:37:37;26.60;99.90
16728;DHT22;8482;54.396;18.590;2022-08-19T08:40:09;26.70;99.90
16728;DHT22;8482;54.396;18.590;2022-08-19T08:42:51;26.70;99.90
16728;DHT22;8482;54.396;18.590;2022-08-19T08:45:26;26.80;99.90
16728;DHT22;8482;54.396;18.590;2022-08-19T08:47:56;26.80;99.90
16728;DHT22;8482;54.396;18.590;2022-08-19T08:50:34;26.90;99.90
16728;DHT22;8482;54.396;18.590;2022-08-19T08:53:07;26.90;99.90
16728;DHT22;8482;54.396;18.590;2022-08-19T08:55:36;27.00;99.90
16728;DHT22;8482;54.396;18.590;2022-08-19T08:58:09;27.00;99.90
16728;DHT22;8482;54.396;18.590;2022-08-19T09:00:46;27.00;99.90
16728;DHT22;8482;54.396;18.590;2022-08-19T09:03:17;27.00;99.90
16728;DHT22;8482;54.396;18.590;2022-08-19T09:06:00;27.10;99.90
16728;DHT22;8482;54.396;18.590;2022-08-19T09:11:11;27.20;99.90
16728;DHT22;8482;54.396;18.590;2022-08-19T09:16:27;27.20;99.90
16728;DHT22;8482;54.396;18.590;2022-08-19T09:19:00;27.20;99.90
16728;DHT22;8482;54.396;18.590;2022-08-19T09:21:28;27.30;99.90
16728;DHT22;8482;54.396;18.590;2022-08-19T09:23:54;27.30;99.90
16728;DHT22;8482;54.396;18.590;2022-08-19T09:26:21;27.30;99.90
16728;DHT22;8482;54.396;18.590;2022-08-19T09:28:50;27.40;99.90
16728;DHT22;8482;54.396;18.590;2022-08-19T09:31:24;27.40;99.90
16728;DHT22;8482;54.396;18.590;2022-08-19T09:33:52;27.40;99.90
16728;DHT22;8482;54.396;18.590;2022-08-19T09:36:23;27.40;99.90
16728;DHT22;8482;54.396;18.590;2022-08-19T09:38:50;27.40;99.90
16728;DHT22;8482;54.396;18.590;2022-08-19T09:41:20;27.50;99.90
16728;DHT22;8482;54.396;18.590;2022-08-19T09:43:51;27.60;99.90
16728;DHT22;8482;54.396;18.590;2022-08-19T09:46:22;27.60;99.90
16728;DHT22;8482;54.396;18.590;2022-08-19T09:48:50;27.70;99.90
16728;DHT22;8482;54.396;18.590;2022-08-19T09:51:22;27.70;99.90
16728;DHT22;8482;54.396;18.590;2022-08-19T09:53:50;27.70;99.90
16728;DHT22;8482;54.396;18.590;2022-08-19T09:56:21;27.80;99.90
16728;DHT22;8482;54.396;18.590;2022-08-19T09:58:48;27.80;99.90
16728;DHT22;8482;54.396;18.590;2022-08-19T10:01:23;27.90;99.90
16728;DHT22;8482;54.396;18.590;2022-08-19T10:03:54;28.00;99.90
16728;DHT22;8482;54.396;18.590;2022-08-19T10:06:23;28.10;99.90
16728;DHT22;8482;54.396;18.590;2022-08-19T10:08:52;28.10;99.90
16728;DHT22;8482;54.396;18.590;2022-08-19T10:11:19;28.20;99.90
16728;DHT22;8482;54.396;18.590;2022-08-19T10:13:46;28.30;99.90
16728;DHT22;8482;54.396;18.590;2022-08-19T10:16:16;28.50;99.90
16728;DHT22;8482;54.396;18.590;2022-08-19T10:18:45;28.60;99.90
16728;DHT22;8482;54.396;18.590;2022-08-19T10:21:17;28.70;99.90
16728;DHT22;8482;54.396;18.590;2022-08-19T10:23:53;28.80;99.90
16728;DHT22;8482;54.396;18.590;2022-08-19T10:26:26;28.90;99.70
16728;DHT22;8482;54.396;18.590;2022-08-19T10:28:55;29.00;99.10
16728;DHT22;8482;54.396;18.590;2022-08-19T10:31:24;29.10;98.50
16728;DHT22;8482;54.396;18.590;2022-08-19T10:33:55;29.20;97.90
16728;DHT22;8482;54.396;18.590;2022-08-19T10:36:33;29.30;97.70
16728;DHT22;8482;54.396;18.590;2022-08-19T10:39:04;29.30;97.50
16728;DHT22;8482;54.396;18.590;2022-08-19T10:41:37;29.40;97.10
16728;DHT22;8482;54.396;18.590;2022-08-19T10:44:07;29.50;96.70
16728;DHT22;8482;54.396;18.590;2022-08-19T10:46:38;29.60;96.00
16728;DHT22;8482;54.396;18.590;2022-08-19T10:49:07;29.60;95.30
16728;DHT22;8482;54.396;18.590;2022-08-19T10:51:35;29.70;95.10
16728;DHT22;8482;54.396;18.590;2022-08-19T10:54:20;29.70;95.20
16728;DHT22;8482;54.396;18.590;2022-08-19T10:56:46;29.70;94.80
16728;DHT22;8482;54.396;18.590;2022-08-19T10:59:23;29.80;94.60
16728;DHT22;8482;54.396;18.590;2022-08-19T11:01:58;29.80;94.20
16728;DHT22;8482;54.396;18.590;2022-08-19T11:04:25;29.90;93.80
16728;DHT22;8482;54.396;18.590;2022-08-19T11:06:52;29.90;93.50
16728;DHT22;8482;54.396;18.590;2022-08-19T11:09:22;29.90;93.60
16728;DHT22;8482;54.396;18.590;2022-08-19T11:11:53;30.00;93.80
16728;DHT22;8482;54.396;18.590;2022-08-19T11:14:20;30.10;93.50
16728;DHT22;8482;54.396;18.590;2022-08-19T11:16:47;30.20;93.50
16728;DHT22;8482;54.396;18.590;2022-08-19T11:19:15;30.30;93.20
16728;DHT22;8482;54.396;18.590;2022-08-19T11:21:48;30.40;92.90
16728;DHT22;8482;54.396;18.590;2022-08-19T11:24:19;30.50;92.70
16728;DHT22;8482;54.396;18.590;2022-08-19T11:26:47;30.50;92.90
16728;DHT22;8482;54.396;18.590;2022-08-19T11:29:16;30.60;91.90
16728;DHT22;8482;54.396;18.590;2022-08-19T11:31:46;30.70;91.00
16728;DHT22;8482;54.396;18.590;2022-08-19T11:34:17;30.80;90.90
16728;DHT22;8482;54.396;18.590;2022-08-19T11:36:46;30.90;90.90
16728;DHT22;8482;54.396;18.590;2022-08-19T11:39:16;30.90;90.50
16728;DHT22;8482;54.396;18.590;2022-08-19T11:41:43;30.90;90.80
16728;DHT22;8482;54.396;18.590;2022-08-19T11:44:09;31.00;91.00
16728;DHT22;8482;54.396;18.590;2022-08-19T11:46:36;31.00;90.90
16728;DHT22;8482;54.396;18.590;2022-08-19T11:49:04;31.10;90.40
16728;DHT22;8482;54.396;18.590;2022-08-19T11:51:32;31.20;90.40
16728;DHT22;8482;54.396;18.590;2022-08-19T11:54:00;31.30;90.00
16728;DHT22;8482;54.396;18.590;2022-08-19T11:56:27;31.30;90.00
16728;DHT22;8482;54.396;18.590;2022-08-19T11:58:54;31.40;90.20
16728;DHT22;8482;54.396;18.590;2022-08-19T12:01:24;31.50;90.30
16728;DHT22;8482;54.396;18.590;2022-08-19T12:03:53;31.50;90.20
16728;DHT22;8482;54.396;18.590;2022-08-19T12:06:23;31.50;90.10
16728;DHT22;8482;54.396;18.590;2022-08-19T12:08:52;31.60;90.00
16728;DHT22;8482;54.396;18.590;2022-08-19T12:11:19;31.60;89.30
16728;DHT22;8482;54.396;18.590;2022-08-19T12:13:44;31.70;89.10
16728;DHT22;8482;54.396;18.590;2022-08-19T12:16:30;31.70;89.60
16728;DHT22;8482;54.396;18.590;2022-08-19T12:18:58;31.80;88.80
16728;DHT22;8482;54.396;18.590;2022-08-19T12:21:29;31.80;87.90
16728;DHT22;8482;54.396;18.590;2022-08-19T12:23:58;31.90;87.80
16728;DHT22;8482;54.396;18.590;2022-08-19T12:26:26;32.00;87.50
16728;DHT22;8482;54.396;18.590;2022-08-19T12:28:54;32.00;87.40
16728;DHT22;8482;54.396;18.590;2022-08-19T12:31:20;32.00;87.00
16728;DHT22;8482;54.396;18.590;2022-08-19T12:33:47;32.00;86.00
16728;DHT22;8482;54.396;18.590;2022-08-19T12:36:15;32.00;85.20
16728;DHT22;8482;54.396;18.590;2022-08-19T12:38:42;32.00;84.90
16728;DHT22;8482;54.396;18.590;2022-08-19T12:41:11;32.10;83.60
16728;DHT22;8482;54.396;18.590;2022-08-19T12:43:39;32.10;83.20
16728;DHT22;8482;54.396;18.590;2022-08-19T12:46:07;32.10;83.20
16728;DHT22;8482;54.396;18.590;2022-08-19T12:48:34;32.10;83.00
16728;DHT22;8482;54.396;18.590;2022-08-19T12:51:00;32.20;82.40
16728;DHT22;8482;54.396;18.590;2022-08-19T12:53:31;32.20;82.30
16728;DHT22;8482;54.396;18.590;2022-08-19T12:55:57;32.30;81.40
16728;DHT22;8482;54.396;18.590;2022-08-19T12:58:25;32.40;79.70
16728;DHT22;8482;54.396;18.590;2022-08-19T13:00:52;32.40;78.60
16728;DHT22;8482;54.396;18.590;2022-08-19T13:03:18;32.50;78.30
16728;DHT22;8482;54.396;18.590;2022-08-19T13:05:44;32.50;77.40
16728;DHT22;8482;54.396;18.590;2022-08-19T13:08:10;32.50;77.20
16728;DHT22;8482;54.396;18.590;2022-08-19T13:10:37;32.50;77.10
16728;DHT22;8482;54.396;18.590;2022-08-19T13:13:07;32.40;76.90
16728;DHT22;8482;54.396;18.590;2022-08-19T13:15:36;32.40;77.10
16728;DHT22;8482;54.396;18.590;2022-08-19T13:18:08;32.40;77.30
16728;DHT22;8482;54.396;18.590;2022-08-19T13:20:36;32.40;77.20
16728;DHT22;8482;54.396;18.590;2022-08-19T13:23:04;32.40;77.50
16728;DHT22;8482;54.396;18.590;2022-08-19T13:25:30;32.40;77.40
16728;DHT22;8482;54.396;18.590;2022-08-19T13:27:56;32.50;77.10
16728;DHT22;8482;54.396;18.590;2022-08-19T13:30:23;32.50;77.00
16728;DHT22;8482;54.396;18.590;2022-08-19T13:33:08;32.60;77.10
16728;DHT22;8482;54.396;18.590;2022-08-19T13:35:38;32.60;75.60
16728;DHT22;8482;54.396;18.590;2022-08-19T13:38:06;32.60;75.50
16728;DHT22;8482;54.396;18.590;2022-08-19T13:40:33;32.60;75.40
16728;DHT22;8482;54.396;18.590;2022-08-19T13:43:00;32.70;75.40
16728;DHT22;8482;54.396;18.590;2022-08-19T13:45:30;32.80;75.80
16728;DHT22;8482;54.396;18.590;2022-08-19T13:48:03;32.80;75.80
16728;DHT22;8482;54.396;18.590;2022-08-19T13:50:43;32.90;76.00
16728;DHT22;8482;54.396;18.590;2022-08-19T13:53:12;32.90;76.20
16728;DHT22;8482;54.396;18.590;2022-08-19T13:55:39;32.90;76.50
16728;DHT22;8482;54.396;18.590;2022-08-19T13:58:06;33.00;75.40
16728;DHT22;8482;54.396;18.590;2022-08-19T14:00:39;32.90;74.80
16728;DHT22;8482;54.396;18.590;2022-08-19T14:03:07;32.90;74.60
16728;DHT22;8482;54.396;18.590;2022-08-19T14:05:33;32.80;74.40
16728;DHT22;8482;54.396;18.590;2022-08-19T14:08:00;32.70;74.20
16728;DHT22;8482;54.396;18.590;2022-08-19T14:10:26;32.70;74.50
16728;DHT22;8482;54.396;18.590;2022-08-19T14:12:58;32.70;75.10
16728;DHT22;8482;54.396;18.590;2022-08-19T14:15:26;32.80;75.20
16728;DHT22;8482;54.396;18.590;2022-08-19T14:17:53;32.90;75.20
16728;DHT22;8482;54.396;18.590;2022-08-19T14:20:20;33.00;75.90
16728;DHT22;8482;54.396;18.590;2022-08-19T14:22:47;33.20;75.40
16728;DHT22;8482;54.396;18.590;2022-08-19T14:25:20;33.40;74.00
16728;DHT22;8482;54.396;18.590;2022-08-19T14:27:52;33.60;72.70
16728;DHT22;8482;54.396;18.590;2022-08-19T14:30:31;33.90;72.60
16728;DHT22;8482;54.396;18.590;2022-08-19T14:33:00;34.10;72.80
16728;DHT22;8482;54.396;18.590;2022-08-19T14:35:28;34.20;71.00
16728;DHT22;8482;54.396;18.590;2022-08-19T14:37:55;34.40;70.90
16728;DHT22;8482;54.396;18.590;2022-08-19T14:40:25;34.60;70.60
16728;DHT22;8482;54.396;18.590;2022-08-19T14:42:58;34.70;70.10
16728;DHT22;8482;54.396;18.590;2022-08-19T14:45:30;34.80;69.00
16728;DHT22;8482;54.396;18.590;2022-08-19T14:47:59;34.90;68.60
16728;DHT22;8482;54.396;18.590;2022-08-19T14:50:25;34.90;70.60
16728;DHT22;8482;54.396;18.590;2022-08-19T14:53:02;34.90;71.50
16728;DHT22;8482;54.396;18.590;2022-08-19T14:55:31;34.90;69.70
16728;DHT22;8482;54.396;18.590;2022-08-19T14:57:58;34.90;68.80
16728;DHT22;8482;54.396;18.590;2022-08-19T15:00:24;34.80;68.20
16728;DHT22;8482;54.396;18.590;2022-08-19T15:02:51;34.80;68.40
16728;DHT22;8482;54.396;18.590;2022-08-19T15:05:19;34.80;68.40
16728;DHT22;8482;54.396;18.590;2022-08-19T15:07:45;34.80;68.40
16728;DHT22;8482;54.396;18.590;2022-08-19T15:10:12;34.80;68.40
16728;DHT22;8482;54.396;18.590;2022-08-19T15:12:40;34.80;68.50
16728;DHT22;8482;54.396;18.590;2022-08-19T15:15:10;34.60;68.50
16728;DHT22;8482;54.396;18.590;2022-08-19T15:17:39;34.60;68.70
16728;DHT22;8482;54.396;18.590;2022-08-19T15:20:07;34.60;69.20
16728;DHT22;8482;54.396;18.590;2022-08-19T15:22:33;34.50;69.60
16728;DHT22;8482;54.396;18.590;2022-08-19T15:25:01;34.40;69.80
16728;DHT22;8482;54.396;18.590;2022-08-19T15:27:27;34.40;69.70
16728;DHT22;8482;54.396;18.590;2022-08-19T15:29:53;34.30;69.70
16728;DHT22;8482;54.396;18.590;2022-08-19T15:32:19;34.20;69.60
16728;DHT22;8482;54.396;18.590;2022-08-19T15:34:44;34.10;69.80
16728;DHT22;8482;54.396;18.590;2022-08-19T15:37:14;34.00;70.00
16728;DHT22;8482;54.396;18.590;2022-08-19T15:39:40;33.90;70.40
16728;DHT22;8482;54.396;18.590;2022-08-19T15:42:06;33.80;70.60
16728;DHT22;8482;54.396;18.590;2022-08-19T15:44:33;33.70;71.10
16728;DHT22;8482;54.396;18.590;2022-08-19T15:46:59;33.70;71.60
16728;DHT22;8482;54.396;18.590;2022-08-19T15:49:24;33.60;72.00
16728;DHT22;8482;54.396;18.590;2022-08-19T15:51:50;33.50;72.50